Airfield :
LOGIN :

Register | Disclaimer

   EN    FR    IT 

 










Legend :    VFR   Marginal VFR   IFR   Intensive IFR   Very Intensive IFR
Visi :
Ceiling :
>= 8 km
>= 3000ft
5 to 8 km
1000 to 3000 ft
1500m to 5 km
500 to 1000 ft
800 to 1500m
200 to 500 ft
< 800m
< 200 ft
Symbols :   Thunderstorms  Fog  Heavy snow  Heavy precipitations  Wind > 20 kt
SIGMETs :     Misc.  Thunderstorms  Icing  Turbulence  Mountain Waves  Volcanic Ashes






- Airport Elevation : 1682 ft
- IATA code : VIT


LEVT - Vitoria Gasteiz

CURRENT METAR :
  • 141400Z 14002KT CAVOK 29/12 Q1022

EXPIRED METARs :
  • 141330Z 08001KT CAVOK 28/10 Q1022
  • 141300Z 00000KT CAVOK 28/10 Q1023
  • 141230Z VRB02KT CAVOK 27/10 Q1023
  • 141200Z 11002KT CAVOK 26/09 Q1024
  • 141130Z 22002KT CAVOK 24/11 Q1024
  • 141100Z 18001KT CAVOK 23/09 Q1025
  • 141030Z 14001KT CAVOK 22/12 Q1025
  • 141000Z 08001KT CAVOK 20/11 Q1025
  • 140930Z 09002KT CAVOK 18/11 Q1026

TAF TAF LEVT
Valid from the 14 at 12:00 until the 15 at 12:00 UTC


141100Z 1412/1512 20007KT CAVOK TX28/1415Z TN08/1503Z
PROB40
TEMPO 1416/1419 32010KT
PROB40
TEMPO 1419/1424 04010KT
PROB40
TEMPO 1500/1512 02010KT 3000 BR BKN005
PROB30
TEMPO 1506/1512 0800 BCFG BKN002



MET'MAP, your aeronautical weather chart ! - Copyright ORBIFLY December 2007 - Disclaimer

ORBIFLY MET'MAP TEAM :

Programming & Development : Alexandra Zaïnal
Original concept : Baudouin d'Aumeries
Technical & hardware support : Manuel Goepfert
Assistance : Marc-Olivier Méhu




SOURCES & CREDITS :

   NOAA